createdAt,value
2017-03-14T00:00:15.860Z,4.65
2017-03-14T00:01:25.722Z,4.7
2017-03-14T00:02:36.028Z,4.68
2017-03-14T00:03:46.423Z,4.73
2017-03-14T00:04:56.573Z,4.7
2017-03-14T00:06:06.859Z,4.67
2017-03-14T00:07:16.726Z,4.73
2017-03-14T00:08:26.975Z,4.67
2017-03-14T00:09:37.240Z,4.71
2017-03-14T00:10:47.774Z,4.57
2017-03-14T00:11:58.043Z,4.7
2017-03-14T00:13:08.372Z,4.65
2017-03-14T00:14:18.278Z,4.65
2017-03-14T00:15:28.584Z,4.53
2017-03-14T00:16:38.794Z,4.62
2017-03-14T00:17:49.084Z,4.65
2017-03-14T00:18:59.353Z,4.6
2017-03-14T00:20:09.601Z,4.6
2017-03-14T00:21:19.458Z,4.56
2017-03-14T00:22:30.200Z,4.53
2017-03-14T00:23:40.491Z,4.56
2017-03-14T00:24:50.772Z,4.57
2017-03-14T00:26:00.660Z,4.55
2017-03-14T00:27:10.511Z,4.53
2017-03-14T00:28:21.405Z,4.5
2017-03-14T00:29:31.308Z,4.5
2017-03-14T00:30:41.218Z,4.41
2017-03-14T00:31:51.460Z,4.5
2017-03-14T00:33:01.314Z,4.43
2017-03-14T00:34:11.858Z,4.41
2017-03-14T00:35:22.222Z,4.46
2017-03-14T00:36:32.061Z,4.43
2017-03-14T00:37:42.351Z,4.41
2017-03-14T00:38:52.636Z,4.52
2017-03-14T00:40:03.211Z,4.53
2017-03-14T00:41:13.466Z,4.5
2017-03-14T00:42:23.717Z,4.46
2017-03-14T00:43:34.035Z,4.52
2017-03-14T00:44:44.278Z,4.49
2017-03-14T00:45:54.842Z,4.52
2017-03-14T00:47:05.153Z,4.49
2017-03-14T00:48:15.406Z,4.43
2017-03-14T00:49:25.693Z,4.43
2017-03-14T00:50:35.985Z,4.43
2017-03-14T00:51:46.514Z,4.41
2017-03-14T00:52:56.972Z,4.52
2017-03-14T00:54:07.237Z,4.47
2017-03-14T00:55:17.515Z,4.43
2017-03-14T00:56:27.770Z,4.5
2017-03-14T00:57:38.306Z,4.49
2017-03-14T00:58:48.595Z,4.53
2017-03-14T00:59:58.500Z,4.53
2017-03-14T01:01:08.825Z,4.53
2017-03-14T01:02:19.108Z,4.47
2017-03-14T01:03:29.668Z,4.49
2017-03-14T01:04:39.922Z,4.52
2017-03-14T01:05:50.188Z,4.52
2017-03-14T01:07:00.443Z,4.49
2017-03-14T01:08:10.403Z,4.47
2017-03-14T01:09:20.921Z,4.5
2017-03-14T01:10:30.358Z,4.4
2017-03-14T01:11:40.304Z,4.46
2017-03-14T01:12:50.594Z,4.4
2017-03-14T01:14:00.845Z,4.47
2017-03-14T01:15:11.384Z,4.38
2017-03-14T01:16:21.770Z,4.4
2017-03-14T01:17:32.064Z,4.4
2017-03-14T01:18:41.970Z,4.34
2017-03-14T01:19:52.216Z,4.36
2017-03-14T01:21:02.735Z,4.34
2017-03-14T01:22:13.137Z,4.33
2017-03-14T01:23:23.545Z,4.34
2017-03-14T01:24:33.895Z,4.3
2017-03-14T01:25:43.790Z,4.34
2017-03-14T01:26:54.314Z,4.27
2017-03-14T01:28:04.146Z,4.36
2017-03-14T01:29:14.392Z,4.33
2017-03-14T01:30:24.658Z,4.34
2017-03-14T01:31:34.893Z,4.33
2017-03-14T01:32:45.428Z,4.33
2017-03-14T01:33:55.711Z,4.23
2017-03-14T01:35:06.013Z,4.27
2017-03-14T01:36:16.277Z,4.23
2017-03-14T01:37:26.529Z,4.25
2017-03-14T01:38:36.704Z,4.3
2017-03-14T01:39:47.022Z,4.23
2017-03-14T01:40:57.264Z,4.3
2017-03-14T01:42:07.189Z,4.2
2017-03-14T01:43:17.437Z,4.19
2017-03-14T01:44:28.010Z,4.22
2017-03-14T01:45:37.879Z,4.16
2017-03-14T01:46:48.126Z,4.22
2017-03-14T01:47:57.986Z,4.19
2017-03-14T01:49:08.270Z,4.2
2017-03-14T01:50:18.799Z,4.23
2017-03-14T01:51:29.077Z,4.2
2017-03-14T01:52:39.360Z,4.22
2017-03-14T01:53:49.224Z,4.23
2017-03-14T01:54:59.101Z,4.23
2017-03-14T01:56:09.790Z,4.22
2017-03-14T01:57:19.758Z,4.27
2017-03-14T01:58:29.722Z,4.25
2017-03-14T01:59:39.620Z,4.23
2017-03-14T02:00:49.982Z,4.23
2017-03-14T02:02:00.627Z,4.2
2017-03-14T02:03:10.924Z,4.16
2017-03-14T02:04:20.836Z,4.2
2017-03-14T02:05:30.687Z,4.2
2017-03-14T02:06:40.532Z,4.28
2017-03-14T02:07:51.075Z,4.23
2017-03-14T02:09:01.333Z,4.19
2017-03-14T02:10:11.620Z,4.33
2017-03-14T02:11:21.865Z,4.25
2017-03-14T02:12:32.108Z,4.25
2017-03-14T02:13:42.634Z,4.25
2017-03-14T02:14:52.916Z,4.33
2017-03-14T02:16:03.191Z,4.23
2017-03-14T02:17:13.427Z,4.27
2017-03-14T02:18:23.278Z,4.22
2017-03-14T02:19:33.908Z,4.27
2017-03-14T02:20:44.231Z,4.22
2017-03-14T02:21:54.230Z,4.2
2017-03-14T02:23:04.536Z,4.16
2017-03-14T02:24:14.835Z,4.19
2017-03-14T02:25:25.381Z,4.25
2017-03-14T02:26:35.636Z,4.22
2017-03-14T02:27:45.897Z,4.27
2017-03-14T02:28:55.762Z,4.23
2017-03-14T02:30:05.693Z,4.27
2017-03-14T02:31:16.238Z,4.23
2017-03-14T02:32:26.603Z,4.27
2017-03-14T02:33:36.854Z,4.27
2017-03-14T02:34:46.743Z,4.36
2017-03-14T02:35:57.052Z,4.31
2017-03-14T02:37:07.577Z,4.28
2017-03-14T02:38:17.457Z,4.33
2017-03-14T02:39:27.704Z,4.34
2017-03-14T02:40:37.974Z,4.36
2017-03-14T02:41:48.254Z,4.23
2017-03-14T02:42:58.911Z,4.36
2017-03-14T02:44:08.794Z,4.27
2017-03-14T02:45:19.041Z,4.36
2017-03-14T02:46:28.904Z,4.37
2017-03-14T02:47:38.749Z,4.31
2017-03-14T02:48:49.324Z,4.27
2017-03-14T02:49:59.588Z,4.33
2017-03-14T02:51:09.869Z,4.36
2017-03-14T02:52:20.166Z,4.4
2017-03-14T02:53:30.492Z,4.34
2017-03-14T02:54:40.990Z,4.36
2017-03-14T02:55:51.250Z,4.3
2017-03-14T02:57:01.746Z,4.34
2017-03-14T02:58:12.008Z,4.28
2017-03-14T02:59:22.304Z,4.33
2017-03-14T03:00:32.388Z,4.38
2017-03-14T03:01:42.664Z,4.37
2017-03-14T03:02:52.962Z,4.37
2017-03-14T03:04:02.804Z,4.38
2017-03-14T03:05:13.099Z,4.38
2017-03-14T03:06:23.649Z,4.4
2017-03-14T03:07:33.918Z,4.38
2017-03-14T03:08:44.196Z,4.41
2017-03-14T03:09:54.496Z,4.38
2017-03-14T03:11:04.852Z,4.5
2017-03-14T03:12:15.050Z,4.49
2017-03-14T03:13:25.303Z,4.4
2017-03-14T03:14:35.197Z,4.4
2017-03-14T03:15:45.544Z,4.4
2017-03-14T03:16:55.871Z,4.36
2017-03-14T03:18:06.046Z,4.41
2017-03-14T03:19:16.365Z,4.43
2017-03-14T03:20:26.665Z,4.46
2017-03-14T03:21:37.126Z,4.38
2017-03-14T03:22:47.441Z,4.38
2017-03-14T03:23:57.939Z,4.47
2017-03-14T03:25:08.202Z,4.4
2017-03-14T03:26:18.519Z,4.43
2017-03-14T03:27:28.790Z,4.46
2017-03-14T03:28:39.040Z,4.46
2017-03-14T03:29:49.164Z,4.49
2017-03-14T03:30:59.636Z,4.52
2017-03-14T03:32:10.131Z,4.5
2017-03-14T03:33:20.096Z,4.49
2017-03-14T03:34:30.366Z,4.43
2017-03-14T03:35:40.880Z,4.5
2017-03-14T03:36:50.736Z,4.56
2017-03-14T03:38:01.143Z,4.52
2017-03-14T03:39:11.236Z,4.56
2017-03-14T03:40:21.579Z,4.56
2017-03-14T03:41:32.187Z,4.52
2017-03-14T03:42:42.465Z,4.59
2017-03-14T03:43:52.823Z,4.6
2017-03-14T03:45:03.099Z,4.59
2017-03-14T03:46:13.347Z,4.63
2017-03-14T03:47:23.954Z,4.67
2017-03-14T03:48:34.254Z,4.68
2017-03-14T03:49:44.549Z,4.57
2017-03-14T03:50:54.883Z,4.67
2017-03-14T03:52:05.139Z,4.55
2017-03-14T03:53:15.259Z,4.75
2017-03-14T03:54:25.117Z,4.6
2017-03-14T03:55:35.462Z,4.68
2017-03-14T03:56:45.765Z,4.57
2017-03-14T03:57:55.628Z,4.63
2017-03-14T03:59:06.222Z,4.59
2017-03-14T04:00:16.533Z,4.53
2017-03-14T04:01:26.901Z,4.68
2017-03-14T04:02:37.283Z,4.67
2017-03-14T04:03:47.600Z,4.7
2017-03-14T04:04:58.143Z,4.75
2017-03-14T04:06:08.418Z,4.7
2017-03-14T04:07:18.750Z,4.75
2017-03-14T04:08:28.636Z,4.68
2017-03-14T04:09:38.918Z,4.73
2017-03-14T04:10:49.489Z,4.67
2017-03-14T04:11:59.793Z,4.68
2017-03-14T04:13:10.363Z,4.68
2017-03-14T04:14:20.690Z,4.57
2017-03-14T04:15:30.977Z,4.68
2017-03-14T04:16:41.095Z,4.59
2017-03-14T04:17:51.349Z,4.67
2017-03-14T04:19:01.671Z,4.68
2017-03-14T04:20:12.033Z,4.68
2017-03-14T04:21:21.879Z,4.73
2017-03-14T04:22:32.389Z,4.67
2017-03-14T04:23:42.664Z,4.63
2017-03-14T04:24:52.529Z,4.73
2017-03-14T04:26:02.788Z,4.7
2017-03-14T04:27:12.632Z,4.7
2017-03-14T04:28:23.250Z,4.71
2017-03-14T04:29:33.571Z,4.71
2017-03-14T04:30:43.414Z,4.62
2017-03-14T04:31:53.709Z,4.75
2017-03-14T04:33:04.048Z,4.75
2017-03-14T04:34:14.628Z,4.62
2017-03-14T04:35:24.482Z,4.63
2017-03-14T04:36:34.360Z,4.77
2017-03-14T04:37:44.844Z,4.74
2017-03-14T04:38:55.116Z,4.65
2017-03-14T04:40:05.613Z,4.8
2017-03-14T04:41:15.857Z,4.7
2017-03-14T04:42:26.098Z,4.74
2017-03-14T04:43:36.413Z,4.83
2017-03-14T04:44:46.824Z,4.81
2017-03-14T04:45:57.392Z,4.83
2017-03-14T04:47:07.674Z,4.75
2017-03-14T04:48:17.117Z,4.77
2017-03-14T04:49:27.414Z,4.71
2017-03-14T04:50:37.672Z,4.86
2017-03-14T04:51:48.187Z,4.8
2017-03-14T04:52:58.028Z,4.92
2017-03-14T04:54:08.349Z,4.81
2017-03-14T04:55:18.606Z,4.8
2017-03-14T04:56:28.865Z,4.81
2017-03-14T04:57:39.407Z,4.75
2017-03-14T04:58:49.676Z,4.98
2017-03-14T04:59:59.942Z,4.88
2017-03-14T05:01:09.834Z,4.93
2017-03-14T05:02:20.129Z,5.03
2017-03-14T05:03:30.655Z,5.04
2017-03-14T05:04:40.984Z,5.04
2017-03-14T05:05:51.260Z,5.07
2017-03-14T05:07:01.120Z,4.99
2017-03-14T05:08:11.444Z,5.03
2017-03-14T05:09:21.942Z,5
2017-03-14T05:10:32.213Z,4.99
2017-03-14T05:11:42.239Z,4.95
2017-03-14T05:12:52.502Z,4.95
2017-03-14T05:14:02.767Z,4.93
2017-03-14T05:15:13.256Z,5.03
2017-03-14T05:16:23.541Z,4.99
2017-03-14T05:17:33.818Z,5
2017-03-14T05:18:44.076Z,4.96
2017-03-14T05:19:54.371Z,4.96
2017-03-14T05:21:04.899Z,4.96
2017-03-14T05:22:15.249Z,4.95
2017-03-14T05:23:25.586Z,4.96
2017-03-14T05:24:35.436Z,4.95
2017-03-14T05:25:45.806Z,5
2017-03-14T05:26:56.401Z,4.98
2017-03-14T05:28:06.757Z,4.95
2017-03-14T05:29:17.012Z,4.98
2017-03-14T05:30:26.963Z,4.93
2017-03-14T05:31:37.284Z,4.92
2017-03-14T05:32:47.772Z,4.93
2017-03-14T05:33:58.063Z,4.83
2017-03-14T05:35:08.345Z,4.77
2017-03-14T05:36:18.681Z,4.77
2017-03-14T05:37:29.023Z,4.86
2017-03-14T05:38:39.131Z,4.85
2017-03-14T05:39:49.389Z,4.73
2017-03-14T05:40:59.644Z,4.73
2017-03-14T05:42:09.950Z,4.86
2017-03-14T05:43:20.264Z,4.81
2017-03-14T05:44:30.777Z,4.81
2017-03-14T05:45:41.123Z,4.85
2017-03-14T05:46:51.434Z,4.83
2017-03-14T05:48:01.726Z,4.73
2017-03-14T05:49:11.958Z,4.73
2017-03-14T05:50:54.220Z,4.8
2017-03-14T05:52:04.092Z,4.77
2017-03-14T05:53:14.401Z,4.74
2017-03-14T05:54:24.658Z,4.74
2017-03-14T05:55:35.172Z,4.85
2017-03-14T05:56:45.419Z,4.85
2017-03-14T05:57:55.296Z,4.75
2017-03-14T05:59:05.544Z,4.83
2017-03-14T06:00:15.829Z,4.89
2017-03-14T06:01:25.933Z,4.89
2017-03-14T06:02:36.188Z,4.95
2017-03-14T06:03:46.518Z,4.9
2017-03-14T06:04:56.448Z,4.95
2017-03-14T06:06:06.735Z,4.92
2017-03-14T06:07:16.835Z,4.96
2017-03-14T06:08:27.139Z,4.95
2017-03-14T06:09:37.590Z,4.92
2017-03-14T06:10:47.598Z,4.85
2017-03-14T06:11:57.857Z,4.98
2017-03-14T06:13:08.362Z,4.95
2017-03-14T06:14:18.644Z,4.93
2017-03-14T06:15:28.896Z,4.9
2017-03-14T06:16:39.142Z,4.89
2017-03-14T06:17:49.033Z,4.95
2017-03-14T06:18:59.557Z,4.92
2017-03-14T06:20:09.810Z,4.9
2017-03-14T06:21:20.040Z,4.95
2017-03-14T06:22:30.457Z,4.93
2017-03-14T06:23:40.758Z,4.9
2017-03-14T06:24:51.271Z,4.98
2017-03-14T06:26:01.544Z,4.98
2017-03-14T06:27:11.874Z,4.99
2017-03-14T06:28:22.144Z,5.07
2017-03-14T06:29:32.513Z,4.99
2017-03-14T06:30:43.095Z,5.1
2017-03-14T06:31:53.410Z,5.13
2017-03-14T06:33:03.963Z,5.11
2017-03-14T06:34:14.227Z,5.13
2017-03-14T06:35:24.142Z,5.11
2017-03-14T06:36:34.227Z,5.16
2017-03-14T06:37:44.476Z,5.11
2017-03-14T06:38:54.775Z,5.21
2017-03-14T06:40:05.107Z,5.21
2017-03-14T06:41:15.344Z,5.25
2017-03-14T06:42:25.485Z,5.18
2017-03-14T06:43:35.847Z,5.22
2017-03-14T06:44:46.130Z,5.22
2017-03-14T06:45:55.989Z,5.22
2017-03-14T06:47:06.474Z,5.21
2017-03-14T06:48:17.071Z,5.28
2017-03-14T06:49:27.352Z,5.24
2017-03-14T06:50:37.646Z,5.33
2017-03-14T06:51:47.893Z,5.35
2017-03-14T06:52:58.163Z,5.26
2017-03-14T06:54:08.788Z,5.18
2017-03-14T06:55:18.707Z,5.28
2017-03-14T06:56:28.962Z,5.29
2017-03-14T06:57:38.818Z,5.32
2017-03-14T06:58:49.121Z,5.32
2017-03-14T06:59:59.661Z,5.29
2017-03-14T07:01:09.947Z,5.29
2017-03-14T07:02:20.254Z,5.29
2017-03-14T07:03:30.612Z,5.29
2017-03-14T07:04:41.110Z,5.32
2017-03-14T07:05:51.603Z,5.35
2017-03-14T07:07:01.897Z,5.4
2017-03-14T07:08:12.184Z,5.5
2017-03-14T07:09:22.446Z,5.41
2017-03-14T07:10:32.922Z,5.53
2017-03-14T07:11:44.042Z,5.59
2017-03-14T07:12:54.318Z,5.54
2017-03-14T07:14:04.666Z,5.68
2017-03-14T07:15:14.911Z,5.67
2017-03-14T07:16:24.785Z,5.69
2017-03-14T07:17:35.332Z,5.75
2017-03-14T07:18:45.697Z,5.82
2017-03-14T07:19:55.949Z,5.82
2017-03-14T07:21:06.277Z,5.83
2017-03-14T07:22:16.604Z,5.74
2017-03-14T07:23:27.197Z,5.84
2017-03-14T07:24:37.479Z,5.94
2017-03-14T07:25:47.745Z,5.91
2017-03-14T07:26:57.595Z,5.93
2017-03-14T07:28:07.483Z,5.9
2017-03-14T07:29:18.004Z,5.9
2017-03-14T07:30:28.339Z,5.9
2017-03-14T07:31:37.786Z,5.96
2017-03-14T07:32:48.229Z,6.05
2017-03-14T07:33:58.502Z,6.03
2017-03-14T07:35:08.607Z,6.05
2017-03-14T07:36:18.890Z,6.08
2017-03-14T07:37:29.304Z,6.11
2017-03-14T07:38:39.186Z,6.05
2017-03-14T07:39:49.485Z,6.08
2017-03-14T07:41:00.016Z,6.09
2017-03-14T07:42:10.380Z,6.09
2017-03-14T07:43:20.241Z,6.08
2017-03-14T07:44:30.538Z,6.06
2017-03-14T07:45:40.857Z,6.05
2017-03-14T07:46:50.982Z,6.08
2017-03-14T07:48:01.002Z,6.02
2017-03-14T07:49:11.250Z,6.08
2017-03-14T07:50:21.135Z,6.11
2017-03-14T07:51:30.992Z,6.03
2017-03-14T07:52:41.566Z,6.06
2017-03-14T07:53:51.813Z,6.14
2017-03-14T07:55:02.140Z,6.16
2017-03-14T07:56:12.460Z,6.31
2017-03-14T07:57:22.837Z,6.45
2017-03-14T07:58:33.380Z,6.46
2017-03-14T07:59:43.621Z,6.54
2017-03-14T08:00:53.494Z,6.62
2017-03-14T08:02:03.946Z,6.77
2017-03-14T08:03:14.360Z,6.92
2017-03-14T08:04:24.950Z,7.02
2017-03-14T08:05:35.236Z,7.05
2017-03-14T08:06:45.533Z,7.33
2017-03-14T08:07:55.798Z,7.66
2017-03-14T08:09:06.420Z,8.12
2017-03-14T08:10:17.618Z,8.7
2017-03-14T08:11:28.671Z,9.16
2017-03-14T08:12:39.598Z,9.41
2017-03-14T08:13:50.525Z,9.4
2017-03-14T08:15:00.823Z,9.25
2017-03-14T08:16:11.323Z,9.2
2017-03-14T08:17:20.773Z,9.12
2017-03-14T08:18:31.012Z,8.93
2017-03-14T08:19:40.980Z,8.79
2017-03-14T08:20:51.228Z,8.79
2017-03-14T08:22:01.737Z,8.61
2017-03-14T08:23:11.987Z,8.49
2017-03-14T08:24:22.257Z,8.48
2017-03-14T08:25:32.619Z,8.45
2017-03-14T08:26:43.013Z,8.43
2017-03-14T08:27:53.566Z,8.48
2017-03-14T08:29:03.889Z,8.57
2017-03-14T08:30:14.138Z,8.58
2017-03-14T08:31:24.029Z,8.53
2017-03-14T08:32:34.285Z,8.58
2017-03-14T08:33:44.871Z,8.55
2017-03-14T08:34:55.175Z,8.49
2017-03-14T08:36:05.434Z,8.66
2017-03-14T08:37:15.680Z,8.48
2017-03-14T08:38:25.952Z,8.52
2017-03-14T08:39:36.698Z,8.43
2017-03-14T08:40:46.976Z,8.3
2017-03-14T08:41:57.249Z,8.2
2017-03-14T08:43:07.508Z,8.09
2017-03-14T08:44:17.798Z,8.06
2017-03-14T08:45:28.561Z,7.97
2017-03-14T08:46:38.886Z,7.87
2017-03-14T08:47:49.149Z,7.87
2017-03-14T08:48:59.469Z,7.85
2017-03-14T08:50:09.729Z,7.84
2017-03-14T08:51:20.266Z,7.84
2017-03-14T08:52:30.640Z,7.84
2017-03-14T08:53:40.916Z,7.87
2017-03-14T08:54:51.176Z,7.84
2017-03-14T08:56:01.415Z,7.8
2017-03-14T08:57:11.527Z,7.84
2017-03-14T08:58:21.767Z,7.84
2017-03-14T08:59:32.017Z,7.87
2017-03-14T09:00:42.293Z,7.8
2017-03-14T09:01:52.590Z,7.91
2017-03-14T09:03:03.102Z,7.98
2017-03-14T09:04:13.086Z,8.17
2017-03-14T09:05:22.970Z,8.24
2017-03-14T09:06:33.220Z,8.27
2017-03-14T09:07:43.473Z,8.35
2017-03-14T09:08:54.253Z,8.4
2017-03-14T09:10:04.180Z,8.5
2017-03-14T09:11:14.427Z,8.55
2017-03-14T09:12:24.300Z,8.68
2017-03-14T09:13:34.584Z,8.79
2017-03-14T09:14:45.095Z,8.75
2017-03-14T09:15:54.990Z,8.75
2017-03-14T09:17:05.292Z,8.9
2017-03-14T09:18:15.369Z,8.97
2017-03-14T09:19:25.700Z,9.07
2017-03-14T09:20:36.276Z,9
2017-03-14T09:21:46.520Z,9.02
2017-03-14T09:22:56.782Z,9.05
2017-03-14T09:24:07.276Z,9.16
2017-03-14T09:25:17.850Z,9.25
2017-03-14T09:26:28.380Z,9.22
2017-03-14T09:27:38.716Z,9.19
2017-03-14T09:28:48.992Z,9.26
2017-03-14T09:29:59.252Z,9.27
2017-03-14T09:31:09.567Z,9.42
2017-03-14T09:32:20.173Z,9.53
2017-03-14T09:33:31.121Z,9.78
2017-03-14T09:34:42.205Z,10.18
2017-03-14T09:35:53.186Z,10.88
2017-03-14T09:37:03.797Z,11.48
2017-03-14T09:38:14.195Z,11.89
2017-03-14T09:39:25.161Z,12.22
2017-03-14T09:40:35.711Z,12.47
2017-03-14T09:41:46.675Z,13
2017-03-14T09:42:57.185Z,13.51
2017-03-14T09:44:08.402Z,13.82
2017-03-14T09:45:19.336Z,14
2017-03-14T09:46:30.297Z,14.04
2017-03-14T09:47:41.238Z,14.14
2017-03-14T09:48:52.188Z,14.29
2017-03-14T09:50:03.429Z,14.87
2017-03-14T09:51:14.360Z,15.32
2017-03-14T09:52:25.308Z,15.68
2017-03-14T09:53:36.288Z,16.27
2017-03-14T09:54:46.901Z,16.49
2017-03-14T09:55:57.697Z,16.59
2017-03-14T09:57:08.669Z,16.43
2017-03-14T09:58:19.710Z,16.19
2017-03-14T09:59:30.716Z,16.02
2017-03-14T10:00:41.268Z,15.96
2017-03-14T10:01:52.456Z,15.8
2017-03-14T10:03:03.427Z,15.87
2017-03-14T10:04:14.555Z,15.51
2017-03-14T10:05:25.218Z,15.48
2017-03-14T10:06:35.803Z,15.42
2017-03-14T10:07:46.993Z,15.48
2017-03-14T10:08:57.975Z,15.43
2017-03-14T10:10:08.166Z,15.39
2017-03-14T10:11:18.667Z,15.43
2017-03-14T10:12:29.712Z,15.5
2017-03-14T10:13:41.036Z,15.7
2017-03-14T10:14:52.040Z,15.78
2017-03-14T10:16:03.118Z,15.96
2017-03-14T10:17:14.062Z,16.11
2017-03-14T10:18:24.632Z,16.27
2017-03-14T10:19:35.838Z,16.43
2017-03-14T10:20:46.315Z,16.61
2017-03-14T10:21:57.357Z,16.72
2017-03-14T10:23:08.186Z,16.93
2017-03-14T10:24:18.397Z,17.12
2017-03-14T10:25:29.154Z,17.28
2017-03-14T10:26:39.356Z,17.73
2017-03-14T10:27:49.875Z,17.94
2017-03-14T10:29:00.096Z,18.2
2017-03-14T10:30:10.969Z,18.3
2017-03-14T10:31:21.485Z,18.38
2017-03-14T10:32:33.069Z,18.62
2017-03-14T10:33:43.644Z,18.65
2017-03-14T10:34:54.187Z,18.53
2017-03-14T10:36:04.745Z,18.44
2017-03-14T10:37:15.574Z,18.32
2017-03-14T10:38:26.118Z,18.4
2017-03-14T10:39:36.671Z,18.34
2017-03-14T10:40:47.283Z,18.25
2017-03-14T10:41:57.540Z,18.16
2017-03-14T10:43:08.093Z,18.16
2017-03-14T10:44:19.662Z,18.26
2017-03-14T10:45:29.862Z,18.35
2017-03-14T10:46:40.380Z,18.34
2017-03-14T10:47:50.969Z,18.46
2017-03-14T10:49:01.753Z,18.41
2017-03-14T10:50:12.519Z,18.56
2017-03-14T10:51:22.806Z,18.65
2017-03-14T10:52:33.454Z,18.69
2017-03-14T10:53:44.009Z,18.8
2017-03-14T10:54:54.934Z,18.87
2017-03-14T10:56:05.200Z,18.97
2017-03-14T10:57:15.461Z,19.1
2017-03-14T10:58:25.978Z,19.03
2017-03-14T10:59:36.509Z,19.03
2017-03-14T11:00:47.327Z,19.12
2017-03-14T11:01:57.887Z,19.02
2017-03-14T11:03:08.176Z,18.5
2017-03-14T11:04:18.099Z,18.07
2017-03-14T11:05:28.710Z,17.64
2017-03-14T11:06:39.548Z,17.16
2017-03-14T11:07:50.103Z,16.75
2017-03-14T11:09:00.646Z,16.39
2017-03-14T11:10:10.554Z,15.82
2017-03-14T11:11:20.178Z,15.33
2017-03-14T11:12:30.372Z,15.05
2017-03-14T11:13:40.308Z,14.74
2017-03-14T11:14:50.322Z,14.31
2017-03-14T11:16:00.239Z,14.14
2017-03-14T11:17:10.011Z,13.92
2017-03-14T11:18:20.230Z,13.7
2017-03-14T11:19:30.215Z,13.48
2017-03-14T11:20:40.166Z,13.27
2017-03-14T11:21:50.089Z,13.11
2017-03-14T11:23:00.019Z,13.06
2017-03-14T11:24:10.379Z,12.97
2017-03-14T11:25:20.404Z,12.92
2017-03-14T11:26:30.405Z,12.84
2017-03-14T11:27:40.383Z,12.56
2017-03-14T11:28:50.329Z,12.55
2017-03-14T11:30:00.521Z,12.52
2017-03-14T11:31:10.433Z,12.47
2017-03-14T11:32:20.495Z,12.37
2017-03-14T11:33:30.430Z,12.41
2017-03-14T11:34:40.398Z,12.31
2017-03-14T11:35:50.630Z,12.26
2017-03-14T11:37:00.578Z,12.27
2017-03-14T11:38:10.553Z,12.22
2017-03-14T11:39:20.202Z,12.26
2017-03-14T11:40:30.130Z,12.07
2017-03-14T11:41:40.639Z,12.04
2017-03-14T11:42:50.614Z,11.95
2017-03-14T11:44:00.588Z,11.9
2017-03-14T11:45:10.589Z,11.87
2017-03-14T11:46:20.537Z,11.9
2017-03-14T11:47:30.883Z,11.82
2017-03-14T11:48:40.832Z,11.71
2017-03-14T11:49:50.808Z,11.71
2017-03-14T11:51:00.452Z,11.62
2017-03-14T11:52:10.371Z,11.65
2017-03-14T11:53:20.574Z,11.57
2017-03-14T11:54:30.521Z,11.64
2017-03-14T11:55:39.840Z,11.65
2017-03-14T11:56:49.470Z,11.65
2017-03-14T11:57:59.519Z,11.65
2017-03-14T11:59:09.711Z,11.79
2017-03-14T12:00:19.638Z,11.8
2017-03-14T12:01:29.593Z,11.79
2017-03-14T12:02:39.247Z,11.79
2017-03-14T12:03:49.302Z,11.74
2017-03-14T12:04:59.588Z,11.74
2017-03-14T12:06:09.532Z,11.77
2017-03-14T12:07:19.469Z,11.79
2017-03-14T12:08:29.437Z,11.84
2017-03-14T12:09:39.414Z,11.9
2017-03-14T12:10:49.359Z,11.94
2017-03-14T12:11:59.309Z,11.91
2017-03-14T12:13:09.014Z,11.89
2017-03-14T12:14:18.698Z,11.99
2017-03-14T12:15:28.695Z,12.01
2017-03-14T12:16:39.120Z,12.08
2017-03-14T12:17:49.075Z,12.08
2017-03-14T12:18:59.080Z,12.08
2017-03-14T12:20:09.007Z,12.09
2017-03-14T12:21:18.640Z,12.08
2017-03-14T12:22:28.806Z,12.04
2017-03-14T12:23:38.761Z,12.07
2017-03-14T12:24:48.689Z,11.99
2017-03-14T12:25:58.705Z,12.02
2017-03-14T12:27:08.661Z,12.09
2017-03-14T12:28:18.540Z,12.04
2017-03-14T12:29:28.493Z,12.2
2017-03-14T12:30:38.122Z,12.11
2017-03-14T12:31:48.097Z,12.22
2017-03-14T12:32:58.091Z,12.29
2017-03-14T12:34:08.317Z,12.44
2017-03-14T12:35:18.306Z,12.38
2017-03-14T12:36:28.278Z,12.52
2017-03-14T12:37:38.513Z,12.5
2017-03-14T12:38:48.511Z,12.53
2017-03-14T12:39:58.880Z,12.57
2017-03-14T12:41:08.818Z,12.59
2017-03-14T12:42:18.098Z,12.56
2017-03-14T12:43:28.069Z,12.63
2017-03-14T12:44:38.032Z,12.62
2017-03-14T12:45:48.277Z,12.63
2017-03-14T12:46:58.194Z,12.62
2017-03-14T12:48:08.204Z,12.62
2017-03-14T12:49:18.143Z,12.59
2017-03-14T12:50:28.105Z,12.55
2017-03-14T12:51:38.372Z,12.52
2017-03-14T12:52:48.460Z,12.37
2017-03-14T12:53:58.429Z,12.44
2017-03-14T12:55:08.393Z,12.27
2017-03-14T12:56:18.316Z,12.27
2017-03-14T12:57:28.519Z,12.2
2017-03-14T12:58:38.479Z,12.05
2017-03-14T12:59:48.460Z,12.07
2017-03-14T13:00:58.396Z,12.02
2017-03-14T13:02:08.369Z,11.91
2017-03-14T13:03:18.573Z,11.82
2017-03-14T13:04:28.562Z,11.74
2017-03-14T13:05:38.556Z,11.68
2017-03-14T13:06:48.502Z,11.59
2017-03-14T13:07:58.499Z,11.52
2017-03-14T13:09:08.720Z,11.45
2017-03-14T13:10:18.646Z,11.43
2017-03-14T13:11:28.788Z,11.46
2017-03-14T13:12:38.752Z,11.39
2017-03-14T13:13:48.819Z,11.43
2017-03-14T13:14:59.056Z,11.35
2017-03-14T13:16:08.994Z,11.4
2017-03-14T13:17:18.651Z,11.4
2017-03-14T13:18:28.598Z,11.4
2017-03-14T13:19:38.537Z,11.45
2017-03-14T13:20:48.733Z,11.48
2017-03-14T13:21:58.396Z,11.35
2017-03-14T13:23:08.326Z,11.45
2017-03-14T13:24:18.291Z,11.42
2017-03-14T13:25:28.261Z,11.35
2017-03-14T13:26:38.445Z,11.34
2017-03-14T13:27:48.591Z,11.34
2017-03-14T13:28:58.513Z,11.42
2017-03-14T13:30:08.452Z,11.39
2017-03-14T13:31:18.394Z,11.34
2017-03-14T13:32:28.607Z,11.38
2017-03-14T13:33:38.606Z,11.42
2017-03-14T13:34:48.623Z,11.39
2017-03-14T13:35:58.689Z,11.43
2017-03-14T13:37:08.662Z,11.4
2017-03-14T13:38:18.874Z,11.42
2017-03-14T13:39:28.837Z,11.48
2017-03-14T13:40:38.759Z,11.5
2017-03-14T13:41:48.691Z,11.48
2017-03-14T13:42:58.768Z,11.61
2017-03-14T13:44:09.037Z,11.62
2017-03-14T13:45:19.164Z,11.76
2017-03-14T13:46:29.145Z,11.86
2017-03-14T13:47:39.168Z,11.91
2017-03-14T13:48:49.175Z,11.86
2017-03-14T13:49:59.398Z,11.91
2017-03-14T13:51:09.431Z,11.94
2017-03-14T13:52:19.387Z,11.89
2017-03-14T13:53:29.365Z,11.87
2017-03-14T13:54:39.348Z,11.83
2017-03-14T13:55:49.613Z,11.79
2017-03-14T13:56:59.562Z,11.74
2017-03-14T13:58:09.548Z,11.77
2017-03-14T13:59:19.519Z,11.74
2017-03-14T14:00:29.472Z,11.74
2017-03-14T14:01:39.847Z,11.77
2017-03-14T14:02:52.893Z,11.79
2017-03-14T14:14:01.218Z,11.53
2017-03-14T14:15:10.847Z,11.61
2017-03-14T14:16:20.816Z,11.52
2017-03-14T14:17:30.808Z,11.52
2017-03-14T14:18:40.507Z,11.58
2017-03-14T14:19:50.676Z,11.58
2017-03-14T14:21:00.326Z,11.53
2017-03-14T14:22:10.551Z,11.65
2017-03-14T14:23:20.308Z,11.62
2017-03-14T14:24:30.305Z,11.84
2017-03-14T14:25:40.507Z,11.77
2017-03-14T14:26:50.486Z,11.9
2017-03-14T14:28:00.571Z,11.86
2017-03-14T14:29:10.499Z,11.95
2017-03-14T14:30:20.500Z,12.01
2017-03-14T14:31:30.693Z,12.07
2017-03-14T14:32:40.824Z,12.07
2017-03-14T14:33:50.434Z,12.08
2017-03-14T14:35:00.378Z,11.99
2017-03-14T14:36:10.305Z,12.04
2017-03-14T14:37:20.716Z,12.09
2017-03-14T14:38:30.659Z,12.02
2017-03-14T14:39:40.592Z,12.08
2017-03-14T14:40:50.237Z,12.05
2017-03-14T14:42:00.199Z,12.05
2017-03-14T14:43:10.386Z,12.07
2017-03-14T14:44:20.372Z,12.05
2017-03-14T14:45:30.368Z,11.98
2017-03-14T14:46:40.458Z,11.97
2017-03-14T14:47:50.399Z,11.97
2017-03-14T14:49:00.659Z,12.01
2017-03-14T14:50:10.649Z,11.95
2017-03-14T14:51:20.581Z,11.94
2017-03-14T14:52:30.600Z,12.01
2017-03-14T14:53:40.359Z,11.9
2017-03-14T14:54:50.616Z,11.89
2017-03-14T14:56:00.554Z,11.83
2017-03-14T14:57:10.486Z,11.74
2017-03-14T14:58:20.484Z,11.74
2017-03-14T14:59:30.418Z,11.77
2017-03-14T15:00:40.815Z,11.8
2017-03-14T15:01:50.927Z,11.76
2017-03-14T15:03:00.859Z,11.74
2017-03-14T15:04:10.836Z,11.8
2017-03-14T15:05:20.958Z,11.87
2017-03-14T15:06:31.159Z,11.86
2017-03-14T15:07:40.803Z,11.89
2017-03-14T15:08:50.417Z,11.83
2017-03-14T15:10:00.409Z,11.9
2017-03-14T15:11:10.384Z,11.86
2017-03-14T15:12:20.606Z,11.87
2017-03-14T15:13:30.703Z,11.89
2017-03-14T15:14:40.629Z,11.94
2017-03-14T15:15:50.631Z,11.9
2017-03-14T15:17:00.636Z,11.95
2017-03-14T15:18:10.804Z,11.9
2017-03-14T15:19:20.739Z,11.89
2017-03-14T15:20:30.681Z,11.98
2017-03-14T15:21:40.660Z,11.9
2017-03-14T15:22:50.350Z,11.9
2017-03-14T15:24:00.560Z,11.91
2017-03-14T15:25:10.535Z,11.87
2017-03-14T15:26:20.466Z,11.76
2017-03-14T15:27:30.585Z,11.71
2017-03-14T15:28:40.624Z,11.68
2017-03-14T15:29:50.814Z,11.71
2017-03-14T15:31:00.948Z,11.76
2017-03-14T15:32:10.942Z,11.72
2017-03-14T15:33:20.589Z,11.65
2017-03-14T15:34:30.335Z,11.68
2017-03-14T15:35:40.511Z,11.72
2017-03-14T15:36:50.529Z,11.58
2017-03-14T15:38:00.565Z,11.64